sensor_id;sensor_type;location;lat;lon;timestamp;P1;durP1;ratioP1;P2;durP2;ratioP2
65583;SDS011;52234;43.568;6.996;2022-07-06T00:02:13;3.67;;;1.00;;
65583;SDS011;52234;43.568;6.996;2022-07-06T00:04:38;2.22;;;0.90;;
65583;SDS011;52234;43.568;6.996;2022-07-06T00:07:04;3.35;;;1.10;;
65583;SDS011;52234;43.568;6.996;2022-07-06T00:09:29;3.70;;;0.98;;
65583;SDS011;52234;43.568;6.996;2022-07-06T00:11:55;3.75;;;1.00;;
65583;SDS011;52234;43.568;6.996;2022-07-06T00:14:20;2.80;;;0.90;;
65583;SDS011;52234;43.568;6.996;2022-07-06T00:16:46;4.05;;;0.90;;
65583;SDS011;52234;43.568;6.996;2022-07-06T00:19:12;3.65;;;1.00;;
65583;SDS011;52234;43.568;6.996;2022-07-06T00:21:37;4.90;;;1.10;;
65583;SDS011;52234;43.568;6.996;2022-07-06T00:24:03;5.00;;;1.05;;
65583;SDS011;52234;43.568;6.996;2022-07-06T00:26:28;1.58;;;0.98;;
65583;SDS011;52234;43.568;6.996;2022-07-06T00:28:54;3.17;;;1.00;;
65583;SDS011;52234;43.568;6.996;2022-07-06T00:31:19;2.90;;;1.00;;
65583;SDS011;52234;43.568;6.996;2022-07-06T00:33:45;7.03;;;1.00;;
65583;SDS011;52234;43.568;6.996;2022-07-06T00:36:10;3.28;;;0.77;;
65583;SDS011;52234;43.568;6.996;2022-07-06T00:38:36;2.20;;;0.90;;
65583;SDS011;52234;43.568;6.996;2022-07-06T00:41:01;3.65;;;1.23;;
65583;SDS011;52234;43.568;6.996;2022-07-06T00:43:27;3.60;;;0.98;;
65583;SDS011;52234;43.568;6.996;2022-07-06T00:45:52;2.92;;;0.90;;
65583;SDS011;52234;43.568;6.996;2022-07-06T00:48:18;2.10;;;1.00;;
65583;SDS011;52234;43.568;6.996;2022-07-06T00:50:43;2.35;;;0.85;;
65583;SDS011;52234;43.568;6.996;2022-07-06T00:53:08;2.78;;;0.90;;
65583;SDS011;52234;43.568;6.996;2022-07-06T00:55:35;3.90;;;1.00;;
65583;SDS011;52234;43.568;6.996;2022-07-06T00:58:04;2.17;;;1.05;;
65583;SDS011;52234;43.568;6.996;2022-07-06T01:00:30;1.65;;;0.88;;
65583;SDS011;52234;43.568;6.996;2022-07-06T01:02:56;2.95;;;0.90;;
65583;SDS011;52234;43.568;6.996;2022-07-06T01:05:22;2.30;;;0.90;;
65583;SDS011;52234;43.568;6.996;2022-07-06T01:07:49;4.20;;;1.00;;
65583;SDS011;52234;43.568;6.996;2022-07-06T01:10:17;3.42;;;0.90;;
65583;SDS011;52234;43.568;6.996;2022-07-06T01:12:43;3.83;;;0.90;;
65583;SDS011;52234;43.568;6.996;2022-07-06T01:15:11;3.03;;;0.98;;
65583;SDS011;52234;43.568;6.996;2022-07-06T01:17:39;2.17;;;0.90;;
65583;SDS011;52234;43.568;6.996;2022-07-06T01:20:10;4.38;;;0.95;;
65583;SDS011;52234;43.568;6.996;2022-07-06T01:22:38;3.50;;;0.90;;
65583;SDS011;52234;43.568;6.996;2022-07-06T01:25:05;2.42;;;0.90;;
65583;SDS011;52234;43.568;6.996;2022-07-06T01:27:31;3.65;;;1.00;;
65583;SDS011;52234;43.568;6.996;2022-07-06T01:29:59;3.85;;;1.10;;
65583;SDS011;52234;43.568;6.996;2022-07-06T01:32:25;2.85;;;0.80;;
65583;SDS011;52234;43.568;6.996;2022-07-06T01:34:51;2.40;;;0.90;;
65583;SDS011;52234;43.568;6.996;2022-07-06T01:37:16;2.15;;;0.70;;
65583;SDS011;52234;43.568;6.996;2022-07-06T01:39:42;2.50;;;0.88;;
65583;SDS011;52234;43.568;6.996;2022-07-06T01:42:07;2.25;;;0.80;;
65583;SDS011;52234;43.568;6.996;2022-07-06T01:44:33;2.80;;;1.00;;
65583;SDS011;52234;43.568;6.996;2022-07-06T01:46:58;2.05;;;0.80;;
65583;SDS011;52234;43.568;6.996;2022-07-06T01:49:23;3.58;;;1.08;;
65583;SDS011;52234;43.568;6.996;2022-07-06T01:51:49;1.88;;;0.82;;
65583;SDS011;52234;43.568;6.996;2022-07-06T01:54:14;2.95;;;0.90;;
65583;SDS011;52234;43.568;6.996;2022-07-06T01:56:40;4.20;;;0.95;;
65583;SDS011;52234;43.568;6.996;2022-07-06T01:59:05;2.15;;;0.80;;
65583;SDS011;52234;43.568;6.996;2022-07-06T02:01:30;2.58;;;0.80;;
65583;SDS011;52234;43.568;6.996;2022-07-06T02:03:56;4.03;;;1.10;;
65583;SDS011;52234;43.568;6.996;2022-07-06T02:06:21;4.00;;;0.90;;
65583;SDS011;52234;43.568;6.996;2022-07-06T02:08:47;2.40;;;0.90;;
65583;SDS011;52234;43.568;6.996;2022-07-06T02:11:12;3.08;;;1.10;;
65583;SDS011;52234;43.568;6.996;2022-07-06T02:13:38;3.85;;;1.05;;
65583;SDS011;52234;43.568;6.996;2022-07-06T02:16:04;3.15;;;1.00;;
65583;SDS011;52234;43.568;6.996;2022-07-06T02:18:29;2.20;;;0.82;;
65583;SDS011;52234;43.568;6.996;2022-07-06T02:20:55;2.03;;;0.85;;
65583;SDS011;52234;43.568;6.996;2022-07-06T02:23:21;1.65;;;0.82;;
65583;SDS011;52234;43.568;6.996;2022-07-06T02:25:46;2.67;;;0.77;;
65583;SDS011;52234;43.568;6.996;2022-07-06T02:28:12;1.65;;;1.00;;
65583;SDS011;52234;43.568;6.996;2022-07-06T02:30:37;3.25;;;0.95;;
65583;SDS011;52234;43.568;6.996;2022-07-06T02:33:02;3.75;;;0.90;;
65583;SDS011;52234;43.568;6.996;2022-07-06T02:35:28;2.97;;;0.90;;
65583;SDS011;52234;43.568;6.996;2022-07-06T02:37:54;3.08;;;1.00;;
65583;SDS011;52234;43.568;6.996;2022-07-06T02:40:19;3.83;;;1.00;;
65583;SDS011;52234;43.568;6.996;2022-07-06T02:42:45;3.75;;;1.00;;
65583;SDS011;52234;43.568;6.996;2022-07-06T02:45:10;4.68;;;0.90;;
65583;SDS011;52234;43.568;6.996;2022-07-06T02:47:36;3.53;;;1.00;;
65583;SDS011;52234;43.568;6.996;2022-07-06T02:50:02;2.85;;;0.80;;
65583;SDS011;52234;43.568;6.996;2022-07-06T02:52:29;4.60;;;1.08;;
65583;SDS011;52234;43.568;6.996;2022-07-06T02:54:54;1.42;;;0.80;;
65583;SDS011;52234;43.568;6.996;2022-07-06T02:57:19;3.75;;;1.00;;
65583;SDS011;52234;43.568;6.996;2022-07-06T02:59:45;1.70;;;0.90;;
65583;SDS011;52234;43.568;6.996;2022-07-06T03:02:11;1.85;;;0.80;;
65583;SDS011;52234;43.568;6.996;2022-07-06T03:04:36;3.25;;;0.90;;
65583;SDS011;52234;43.568;6.996;2022-07-06T03:07:02;3.45;;;0.80;;
65583;SDS011;52234;43.568;6.996;2022-07-06T03:09:28;1.85;;;0.90;;
65583;SDS011;52234;43.568;6.996;2022-07-06T03:11:53;3.75;;;0.90;;
65583;SDS011;52234;43.568;6.996;2022-07-06T03:14:19;1.85;;;0.93;;
65583;SDS011;52234;43.568;6.996;2022-07-06T03:16:44;2.40;;;0.80;;
65583;SDS011;52234;43.568;6.996;2022-07-06T03:19:09;4.55;;;0.85;;
65583;SDS011;52234;43.568;6.996;2022-07-06T03:21:35;3.17;;;1.00;;
65583;SDS011;52234;43.568;6.996;2022-07-06T03:24:00;5.88;;;0.98;;
65583;SDS011;52234;43.568;6.996;2022-07-06T03:26:26;3.03;;;1.00;;
65583;SDS011;52234;43.568;6.996;2022-07-06T03:28:51;4.28;;;0.93;;
65583;SDS011;52234;43.568;6.996;2022-07-06T03:31:19;4.15;;;1.10;;
65583;SDS011;52234;43.568;6.996;2022-07-06T03:33:45;5.82;;;1.10;;
65583;SDS011;52234;43.568;6.996;2022-07-06T03:36:11;2.30;;;1.13;;
65583;SDS011;52234;43.568;6.996;2022-07-06T03:38:36;4.22;;;1.15;;
65583;SDS011;52234;43.568;6.996;2022-07-06T03:41:02;4.35;;;0.90;;
65583;SDS011;52234;43.568;6.996;2022-07-06T03:43:28;2.15;;;1.05;;
65583;SDS011;52234;43.568;6.996;2022-07-06T03:45:53;4.95;;;1.25;;
65583;SDS011;52234;43.568;6.996;2022-07-06T03:48:18;2.28;;;1.10;;
65583;SDS011;52234;43.568;6.996;2022-07-06T03:50:44;3.28;;;1.00;;
65583;SDS011;52234;43.568;6.996;2022-07-06T03:53:09;3.03;;;1.20;;
65583;SDS011;52234;43.568;6.996;2022-07-06T03:55:35;3.10;;;1.00;;
65583;SDS011;52234;43.568;6.996;2022-07-06T03:58:01;3.80;;;0.93;;
65583;SDS011;52234;43.568;6.996;2022-07-06T04:00:26;2.88;;;1.08;;
65583;SDS011;52234;43.568;6.996;2022-07-06T04:02:51;3.80;;;1.20;;
65583;SDS011;52234;43.568;6.996;2022-07-06T04:05:17;2.05;;;1.00;;
65583;SDS011;52234;43.568;6.996;2022-07-06T04:07:46;3.72;;;1.30;;
65583;SDS011;52234;43.568;6.996;2022-07-06T04:10:13;2.00;;;1.10;;
65583;SDS011;52234;43.568;6.996;2022-07-06T04:12:39;2.28;;;1.10;;
65583;SDS011;52234;43.568;6.996;2022-07-06T04:15:09;2.47;;;1.03;;
65583;SDS011;52234;43.568;6.996;2022-07-06T04:17:35;4.20;;;1.20;;
65583;SDS011;52234;43.568;6.996;2022-07-06T04:20:21;1.65;;;0.90;;
65583;SDS011;52234;43.568;6.996;2022-07-06T04:22:47;3.47;;;1.10;;
65583;SDS011;52234;43.568;6.996;2022-07-06T04:25:13;2.05;;;0.90;;
65583;SDS011;52234;43.568;6.996;2022-07-06T04:27:38;2.67;;;1.00;;
65583;SDS011;52234;43.568;6.996;2022-07-06T04:30:04;1.67;;;1.00;;
65583;SDS011;52234;43.568;6.996;2022-07-06T04:32:30;2.25;;;1.08;;
65583;SDS011;52234;43.568;6.996;2022-07-06T04:34:56;1.98;;;1.17;;
65583;SDS011;52234;43.568;6.996;2022-07-06T04:37:22;2.97;;;1.10;;
65583;SDS011;52234;43.568;6.996;2022-07-06T04:39:47;2.90;;;1.08;;
65583;SDS011;52234;43.568;6.996;2022-07-06T04:42:13;3.15;;;1.10;;
65583;SDS011;52234;43.568;6.996;2022-07-06T04:44:38;2.95;;;1.10;;
65583;SDS011;52234;43.568;6.996;2022-07-06T04:47:04;3.33;;;1.10;;
65583;SDS011;52234;43.568;6.996;2022-07-06T04:49:29;2.63;;;1.15;;
65583;SDS011;52234;43.568;6.996;2022-07-06T04:51:55;5.32;;;1.40;;
65583;SDS011;52234;43.568;6.996;2022-07-06T04:54:20;2.72;;;1.30;;
65583;SDS011;52234;43.568;6.996;2022-07-06T04:56:46;3.10;;;1.20;;
65583;SDS011;52234;43.568;6.996;2022-07-06T04:59:12;3.25;;;0.95;;
65583;SDS011;52234;43.568;6.996;2022-07-06T05:01:37;3.58;;;1.00;;
65583;SDS011;52234;43.568;6.996;2022-07-06T05:04:03;4.82;;;1.10;;
65583;SDS011;52234;43.568;6.996;2022-07-06T05:06:28;3.08;;;1.20;;
65583;SDS011;52234;43.568;6.996;2022-07-06T05:08:54;8.95;;;1.35;;
65583;SDS011;52234;43.568;6.996;2022-07-06T05:11:19;4.70;;;1.23;;
65583;SDS011;52234;43.568;6.996;2022-07-06T05:13:45;3.95;;;1.20;;
65583;SDS011;52234;43.568;6.996;2022-07-06T05:16:10;6.22;;;1.50;;
65583;SDS011;52234;43.568;6.996;2022-07-06T05:18:35;6.90;;;1.50;;
65583;SDS011;52234;43.568;6.996;2022-07-06T05:21:01;6.65;;;1.65;;
65583;SDS011;52234;43.568;6.996;2022-07-06T05:23:26;9.32;;;1.80;;
65583;SDS011;52234;43.568;6.996;2022-07-06T05:25:53;7.70;;;1.58;;
65583;SDS011;52234;43.568;6.996;2022-07-06T05:28:18;10.52;;;1.70;;
65583;SDS011;52234;43.568;6.996;2022-07-06T05:30:44;5.70;;;1.95;;
65583;SDS011;52234;43.568;6.996;2022-07-06T05:33:09;8.57;;;1.80;;
65583;SDS011;52234;43.568;6.996;2022-07-06T05:35:35;8.70;;;1.55;;
65583;SDS011;52234;43.568;6.996;2022-07-06T05:38:00;7.03;;;1.77;;
65583;SDS011;52234;43.568;6.996;2022-07-06T05:40:25;4.25;;;1.60;;
65583;SDS011;52234;43.568;6.996;2022-07-06T05:42:51;10.65;;;1.70;;
65583;SDS011;52234;43.568;6.996;2022-07-06T05:45:16;6.63;;;1.70;;
65583;SDS011;52234;43.568;6.996;2022-07-06T05:47:42;7.18;;;1.80;;
65583;SDS011;52234;43.568;6.996;2022-07-06T05:50:25;7.25;;;1.55;;
65583;SDS011;52234;43.568;6.996;2022-07-06T05:52:55;6.22;;;1.70;;
65583;SDS011;52234;43.568;6.996;2022-07-06T05:55:22;9.73;;;1.65;;
65583;SDS011;52234;43.568;6.996;2022-07-06T05:57:47;6.65;;;1.45;;
65583;SDS011;52234;43.568;6.996;2022-07-06T06:00:15;7.68;;;1.40;;
65583;SDS011;52234;43.568;6.996;2022-07-06T06:02:41;6.55;;;1.80;;
65583;SDS011;52234;43.568;6.996;2022-07-06T06:05:08;3.80;;;1.55;;
65583;SDS011;52234;43.568;6.996;2022-07-06T06:07:35;6.30;;;1.60;;
65583;SDS011;52234;43.568;6.996;2022-07-06T06:10:02;4.38;;;1.30;;
65583;SDS011;52234;43.568;6.996;2022-07-06T06:12:37;3.92;;;1.42;;
65583;SDS011;52234;43.568;6.996;2022-07-06T06:15:04;7.53;;;1.40;;
65583;SDS011;52234;43.568;6.996;2022-07-06T06:17:30;4.43;;;1.30;;
65583;SDS011;52234;43.568;6.996;2022-07-06T06:19:56;3.25;;;1.30;;
65583;SDS011;52234;43.568;6.996;2022-07-06T06:22:22;6.07;;;1.48;;
65583;SDS011;52234;43.568;6.996;2022-07-06T06:24:47;4.70;;;1.10;;
65583;SDS011;52234;43.568;6.996;2022-07-06T06:27:13;5.20;;;1.40;;
65583;SDS011;52234;43.568;6.996;2022-07-06T06:29:39;3.35;;;1.27;;
65583;SDS011;52234;43.568;6.996;2022-07-06T06:32:06;4.43;;;1.25;;
65583;SDS011;52234;43.568;6.996;2022-07-06T06:34:31;3.40;;;1.08;;
65583;SDS011;52234;43.568;6.996;2022-07-06T06:36:57;3.03;;;1.20;;
65583;SDS011;52234;43.568;6.996;2022-07-06T06:39:23;2.28;;;1.20;;
65583;SDS011;52234;43.568;6.996;2022-07-06T06:41:48;3.80;;;1.20;;
65583;SDS011;52234;43.568;6.996;2022-07-06T06:44:14;2.58;;;1.30;;
65583;SDS011;52234;43.568;6.996;2022-07-06T06:46:39;5.85;;;1.10;;
65583;SDS011;52234;43.568;6.996;2022-07-06T06:49:05;4.18;;;1.20;;
65583;SDS011;52234;43.568;6.996;2022-07-06T06:51:31;4.80;;;1.25;;
65583;SDS011;52234;43.568;6.996;2022-07-06T06:53:57;3.60;;;1.10;;
65583;SDS011;52234;43.568;6.996;2022-07-06T06:56:22;3.67;;;1.27;;
65583;SDS011;52234;43.568;6.996;2022-07-06T06:58:51;8.73;;;1.30;;
65583;SDS011;52234;43.568;6.996;2022-07-06T07:01:16;5.55;;;1.20;;
65583;SDS011;52234;43.568;6.996;2022-07-06T07:03:42;7.05;;;1.50;;
65583;SDS011;52234;43.568;6.996;2022-07-06T07:06:07;5.13;;;1.50;;
65583;SDS011;52234;43.568;6.996;2022-07-06T07:08:32;5.88;;;1.23;;
65583;SDS011;52234;43.568;6.996;2022-07-06T07:10:58;3.67;;;1.17;;
65583;SDS011;52234;43.568;6.996;2022-07-06T07:13:24;4.55;;;1.25;;
65583;SDS011;52234;43.568;6.996;2022-07-06T07:15:49;7.18;;;1.27;;
65583;SDS011;52234;43.568;6.996;2022-07-06T07:18:15;6.15;;;1.48;;
65583;SDS011;52234;43.568;6.996;2022-07-06T07:20:40;2.58;;;1.10;;
65583;SDS011;52234;43.568;6.996;2022-07-06T07:23:05;6.85;;;1.45;;
65583;SDS011;52234;43.568;6.996;2022-07-06T07:25:31;4.68;;;1.20;;
65583;SDS011;52234;43.568;6.996;2022-07-06T07:27:56;3.35;;;1.27;;
65583;SDS011;52234;43.568;6.996;2022-07-06T07:30:22;7.97;;;1.55;;
65583;SDS011;52234;43.568;6.996;2022-07-06T07:32:47;5.88;;;1.33;;
65583;SDS011;52234;43.568;6.996;2022-07-06T07:35:13;5.00;;;1.33;;
65583;SDS011;52234;43.568;6.996;2022-07-06T07:37:38;3.83;;;1.20;;
65583;SDS011;52234;43.568;6.996;2022-07-06T07:40:04;5.65;;;1.27;;
65583;SDS011;52234;43.568;6.996;2022-07-06T07:42:30;3.95;;;1.20;;
65583;SDS011;52234;43.568;6.996;2022-07-06T07:44:56;4.70;;;1.27;;
65583;SDS011;52234;43.568;6.996;2022-07-06T07:47:22;4.03;;;1.20;;
65583;SDS011;52234;43.568;6.996;2022-07-06T07:49:47;4.43;;;1.25;;
65583;SDS011;52234;43.568;6.996;2022-07-06T07:52:13;3.80;;;1.30;;
65583;SDS011;52234;43.568;6.996;2022-07-06T07:54:38;4.90;;;1.17;;
65583;SDS011;52234;43.568;6.996;2022-07-06T07:57:04;5.03;;;1.33;;
65583;SDS011;52234;43.568;6.996;2022-07-06T07:59:30;4.72;;;1.30;;
65583;SDS011;52234;43.568;6.996;2022-07-06T08:01:55;4.68;;;1.25;;
65583;SDS011;52234;43.568;6.996;2022-07-06T08:04:21;4.15;;;1.25;;
65583;SDS011;52234;43.568;6.996;2022-07-06T08:06:46;3.25;;;1.10;;
65583;SDS011;52234;43.568;6.996;2022-07-06T08:09:12;2.28;;;1.10;;
65583;SDS011;52234;43.568;6.996;2022-07-06T08:11:38;5.22;;;2.40;;
65583;SDS011;52234;43.568;6.996;2022-07-06T08:14:03;2.67;;;1.10;;
65583;SDS011;52234;43.568;6.996;2022-07-06T08:16:29;3.95;;;1.33;;
65583;SDS011;52234;43.568;6.996;2022-07-06T08:18:55;4.82;;;1.30;;
65583;SDS011;52234;43.568;6.996;2022-07-06T08:21:21;6.47;;;1.25;;
65583;SDS011;52234;43.568;6.996;2022-07-06T08:23:46;5.47;;;1.10;;
65583;SDS011;52234;43.568;6.996;2022-07-06T08:26:12;2.75;;;1.10;;
65583;SDS011;52234;43.568;6.996;2022-07-06T08:28:37;3.47;;;1.17;;
65583;SDS011;52234;43.568;6.996;2022-07-06T08:31:03;2.05;;;1.10;;
65583;SDS011;52234;43.568;6.996;2022-07-06T08:33:28;3.33;;;0.95;;
65583;SDS011;52234;43.568;6.996;2022-07-06T08:35:54;3.30;;;1.20;;
65583;SDS011;52234;43.568;6.996;2022-07-06T08:38:19;5.50;;;1.30;;
65583;SDS011;52234;43.568;6.996;2022-07-06T08:40:45;5.45;;;1.25;;
65583;SDS011;52234;43.568;6.996;2022-07-06T08:43:13;2.88;;;1.23;;
65583;SDS011;52234;43.568;6.996;2022-07-06T08:45:40;3.72;;;1.40;;
65583;SDS011;52234;43.568;6.996;2022-07-06T08:48:08;4.97;;;1.20;;
65583;SDS011;52234;43.568;6.996;2022-07-06T08:50:34;3.13;;;1.02;;
65583;SDS011;52234;43.568;6.996;2022-07-06T08:53:00;1.65;;;1.20;;
65583;SDS011;52234;43.568;6.996;2022-07-06T08:55:25;2.70;;;1.05;;
65583;SDS011;52234;43.568;6.996;2022-07-06T08:57:52;3.97;;;1.20;;
65583;SDS011;52234;43.568;6.996;2022-07-06T09:00:20;5.28;;;1.00;;
65583;SDS011;52234;43.568;6.996;2022-07-06T09:02:47;3.97;;;1.20;;
65583;SDS011;52234;43.568;6.996;2022-07-06T09:05:16;8.73;;;1.80;;
65583;SDS011;52234;43.568;6.996;2022-07-06T09:07:42;3.45;;;1.20;;
65583;SDS011;52234;43.568;6.996;2022-07-06T09:10:10;4.00;;;1.20;;
65583;SDS011;52234;43.568;6.996;2022-07-06T09:12:37;6.90;;;1.20;;
65583;SDS011;52234;43.568;6.996;2022-07-06T09:15:02;4.50;;;1.10;;
65583;SDS011;52234;43.568;6.996;2022-07-06T09:17:28;5.40;;;1.20;;
65583;SDS011;52234;43.568;6.996;2022-07-06T09:19:54;2.67;;;1.25;;
65583;SDS011;52234;43.568;6.996;2022-07-06T09:22:28;4.72;;;1.30;;
65583;SDS011;52234;43.568;6.996;2022-07-06T09:25:11;4.00;;;1.20;;
65583;SDS011;52234;43.568;6.996;2022-07-06T09:27:39;4.75;;;1.30;;
65583;SDS011;52234;43.568;6.996;2022-07-06T09:30:07;5.15;;;1.27;;
65583;SDS011;52234;43.568;6.996;2022-07-06T09:35:07;4.82;;;1.40;;
65583;SDS011;52234;43.568;6.996;2022-07-06T09:37:34;4.82;;;1.20;;
65583;SDS011;52234;43.568;6.996;2022-07-06T09:39:59;3.47;;;1.23;;
65583;SDS011;52234;43.568;6.996;2022-07-06T09:42:25;5.25;;;1.30;;
65583;SDS011;52234;43.568;6.996;2022-07-06T09:44:51;5.18;;;1.33;;
65583;SDS011;52234;43.568;6.996;2022-07-06T09:47:18;3.78;;;1.20;;
65583;SDS011;52234;43.568;6.996;2022-07-06T09:49:45;5.20;;;1.27;;
65583;SDS011;52234;43.568;6.996;2022-07-06T09:52:11;5.72;;;1.27;;
65583;SDS011;52234;43.568;6.996;2022-07-06T09:54:37;3.83;;;1.35;;
65583;SDS011;52234;43.568;6.996;2022-07-06T09:57:04;6.20;;;1.25;;
65583;SDS011;52234;43.568;6.996;2022-07-06T09:59:31;3.92;;;1.10;;
65583;SDS011;52234;43.568;6.996;2022-07-06T10:01:58;3.75;;;1.20;;
65583;SDS011;52234;43.568;6.996;2022-07-06T10:04:26;3.78;;;1.20;;
65583;SDS011;52234;43.568;6.996;2022-07-06T10:06:52;5.43;;;1.25;;
65583;SDS011;52234;43.568;6.996;2022-07-06T10:09:20;4.75;;;1.17;;
65583;SDS011;52234;43.568;6.996;2022-07-06T10:11:48;2.50;;;1.10;;
65583;SDS011;52234;43.568;6.996;2022-07-06T10:14:18;5.82;;;1.30;;
65583;SDS011;52234;43.568;6.996;2022-07-06T10:16:46;6.82;;;1.45;;
65583;SDS011;52234;43.568;6.996;2022-07-06T10:19:12;7.00;;;1.20;;
65583;SDS011;52234;43.568;6.996;2022-07-06T10:21:39;5.03;;;1.20;;
65583;SDS011;52234;43.568;6.996;2022-07-06T10:24:06;2.40;;;1.20;;
65583;SDS011;52234;43.568;6.996;2022-07-06T10:26:33;3.03;;;1.02;;
65583;SDS011;52234;43.568;6.996;2022-07-06T10:29:00;4.53;;;1.20;;
65583;SDS011;52234;43.568;6.996;2022-07-06T10:31:29;9.25;;;1.63;;
65583;SDS011;52234;43.568;6.996;2022-07-06T10:33:56;8.63;;;1.20;;
65583;SDS011;52234;43.568;6.996;2022-07-06T10:36:23;3.67;;;1.20;;
65583;SDS011;52234;43.568;6.996;2022-07-06T10:38:51;4.25;;;1.48;;
65583;SDS011;52234;43.568;6.996;2022-07-06T10:41:17;1.77;;;1.10;;
65583;SDS011;52234;43.568;6.996;2022-07-06T10:43:47;4.03;;;1.52;;
65583;SDS011;52234;43.568;6.996;2022-07-06T10:46:14;3.00;;;1.38;;
65583;SDS011;52234;43.568;6.996;2022-07-06T10:48:42;6.80;;;1.40;;
65583;SDS011;52234;43.568;6.996;2022-07-06T10:51:27;4.95;;;1.30;;
65583;SDS011;52234;43.568;6.996;2022-07-06T10:53:57;4.45;;;1.33;;
65583;SDS011;52234;43.568;6.996;2022-07-06T10:56:37;6.07;;;1.30;;
65583;SDS011;52234;43.568;6.996;2022-07-06T10:59:20;4.28;;;1.30;;
65583;SDS011;52234;43.568;6.996;2022-07-06T11:04:48;4.20;;;1.40;;
65583;SDS011;52234;43.568;6.996;2022-07-06T11:07:17;4.10;;;1.30;;
65583;SDS011;52234;43.568;6.996;2022-07-06T11:12:38;3.03;;;1.23;;
65583;SDS011;52234;43.568;6.996;2022-07-06T11:15:10;3.78;;;1.30;;
65583;SDS011;52234;43.568;6.996;2022-07-06T11:17:35;4.00;;;1.30;;
65583;SDS011;52234;43.568;6.996;2022-07-06T11:20:18;3.83;;;1.30;;
65583;SDS011;52234;43.568;6.996;2022-07-06T11:22:44;4.78;;;1.20;;
65583;SDS011;52234;43.568;6.996;2022-07-06T11:25:09;5.15;;;1.20;;
65583;SDS011;52234;43.568;6.996;2022-07-06T11:27:35;2.78;;;1.38;;
65583;SDS011;52234;43.568;6.996;2022-07-06T11:30:01;4.88;;;1.20;;
65583;SDS011;52234;43.568;6.996;2022-07-06T11:32:27;3.83;;;1.00;;
65583;SDS011;52234;43.568;6.996;2022-07-06T11:34:53;2.10;;;1.10;;
65583;SDS011;52234;43.568;6.996;2022-07-06T11:37:19;2.75;;;1.23;;
65583;SDS011;52234;43.568;6.996;2022-07-06T11:39:46;2.47;;;1.10;;
65583;SDS011;52234;43.568;6.996;2022-07-06T11:42:13;2.38;;;1.00;;
65583;SDS011;52234;43.568;6.996;2022-07-06T11:44:40;7.03;;;1.10;;
65583;SDS011;52234;43.568;6.996;2022-07-06T11:47:07;3.42;;;1.10;;
65583;SDS011;52234;43.568;6.996;2022-07-06T11:49:33;3.20;;;1.05;;
65583;SDS011;52234;43.568;6.996;2022-07-06T11:52:00;3.47;;;1.10;;
65583;SDS011;52234;43.568;6.996;2022-07-06T11:54:31;2.10;;;1.00;;
65583;SDS011;52234;43.568;6.996;2022-07-06T11:56:57;6.70;;;1.00;;
65583;SDS011;52234;43.568;6.996;2022-07-06T11:59:28;5.40;;;1.35;;
65583;SDS011;52234;43.568;6.996;2022-07-06T12:01:59;6.47;;;1.00;;
65583;SDS011;52234;43.568;6.996;2022-07-06T12:04:25;5.15;;;1.20;;
65583;SDS011;52234;43.568;6.996;2022-07-06T12:06:50;3.47;;;0.98;;
65583;SDS011;52234;43.568;6.996;2022-07-06T12:09:16;3.95;;;1.20;;
65583;SDS011;52234;43.568;6.996;2022-07-06T12:11:43;7.25;;;1.25;;
65583;SDS011;52234;43.568;6.996;2022-07-06T12:14:15;4.43;;;1.10;;
65583;SDS011;52234;43.568;6.996;2022-07-06T12:16:46;3.35;;;1.10;;
65583;SDS011;52234;43.568;6.996;2022-07-06T12:19:13;4.30;;;1.30;;
65583;SDS011;52234;43.568;6.996;2022-07-06T12:21:47;3.47;;;0.98;;
65583;SDS011;52234;43.568;6.996;2022-07-06T12:24:23;5.00;;;1.35;;
65583;SDS011;52234;43.568;6.996;2022-07-06T12:26:50;2.15;;;1.10;;
65583;SDS011;52234;43.568;6.996;2022-07-06T12:29:17;6.18;;;1.35;;
65583;SDS011;52234;43.568;6.996;2022-07-06T12:34:13;4.25;;;1.10;;
65583;SDS011;52234;43.568;6.996;2022-07-06T12:36:42;8.90;;;1.10;;
65583;SDS011;52234;43.568;6.996;2022-07-06T12:39:12;9.20;;;1.20;;
65583;SDS011;52234;43.568;6.996;2022-07-06T12:41:43;4.03;;;1.30;;
65583;SDS011;52234;43.568;6.996;2022-07-06T12:44:11;2.70;;;1.10;;
65583;SDS011;52234;43.568;6.996;2022-07-06T12:46:37;4.90;;;1.20;;
65583;SDS011;52234;43.568;6.996;2022-07-06T12:51:53;2.30;;;1.00;;
65583;SDS011;52234;43.568;6.996;2022-07-06T12:54:27;2.15;;;1.00;;
65583;SDS011;52234;43.568;6.996;2022-07-06T12:56:56;6.10;;;1.30;;
65583;SDS011;52234;43.568;6.996;2022-07-06T12:59:22;4.93;;;1.17;;
65583;SDS011;52234;43.568;6.996;2022-07-06T13:01:48;2.88;;;1.10;;
65583;SDS011;52234;43.568;6.996;2022-07-06T13:04:15;2.70;;;0.98;;
65583;SDS011;52234;43.568;6.996;2022-07-06T13:06:41;2.05;;;1.02;;
65583;SDS011;52234;43.568;6.996;2022-07-06T13:09:06;2.22;;;1.00;;
65583;SDS011;52234;43.568;6.996;2022-07-06T13:11:31;1.67;;;1.10;;
65583;SDS011;52234;43.568;6.996;2022-07-06T13:13:58;3.25;;;1.10;;
65583;SDS011;52234;43.568;6.996;2022-07-06T13:16:24;1.67;;;1.02;;
65583;SDS011;52234;43.568;6.996;2022-07-06T13:18:55;3.38;;;1.10;;
65583;SDS011;52234;43.568;6.996;2022-07-06T13:21:21;4.20;;;1.10;;
65583;SDS011;52234;43.568;6.996;2022-07-06T13:23:46;1.65;;;0.93;;
65583;SDS011;52234;43.568;6.996;2022-07-06T13:26:12;5.05;;;1.00;;
65583;SDS011;52234;43.568;6.996;2022-07-06T13:28:38;1.88;;;0.90;;
65583;SDS011;52234;43.568;6.996;2022-07-06T13:31:04;2.53;;;0.90;;
65583;SDS011;52234;43.568;6.996;2022-07-06T13:33:29;4.10;;;0.95;;
65583;SDS011;52234;43.568;6.996;2022-07-06T13:35:54;4.13;;;1.08;;
65583;SDS011;52234;43.568;6.996;2022-07-06T13:38:20;2.65;;;0.95;;
65583;SDS011;52234;43.568;6.996;2022-07-06T13:40:45;2.58;;;0.93;;
65583;SDS011;52234;43.568;6.996;2022-07-06T13:43:11;2.08;;;0.80;;
65583;SDS011;52234;43.568;6.996;2022-07-06T13:45:36;5.68;;;0.90;;
65583;SDS011;52234;43.568;6.996;2022-07-06T13:48:02;3.88;;;1.00;;
65583;SDS011;52234;43.568;6.996;2022-07-06T13:50:28;3.03;;;0.80;;
65583;SDS011;52234;43.568;6.996;2022-07-06T13:52:57;2.65;;;0.90;;
65583;SDS011;52234;43.568;6.996;2022-07-06T13:55:23;2.13;;;0.70;;
65583;SDS011;52234;43.568;6.996;2022-07-06T13:57:48;4.45;;;0.90;;
65583;SDS011;52234;43.568;6.996;2022-07-06T14:00:14;5.00;;;0.90;;
65583;SDS011;52234;43.568;6.996;2022-07-06T14:02:39;4.22;;;1.00;;
65583;SDS011;52234;43.568;6.996;2022-07-06T14:05:05;3.47;;;1.08;;
65583;SDS011;52234;43.568;6.996;2022-07-06T14:07:31;2.83;;;0.90;;
65583;SDS011;52234;43.568;6.996;2022-07-06T14:09:56;1.58;;;0.90;;
65583;SDS011;52234;43.568;6.996;2022-07-06T14:12:22;2.92;;;0.95;;
65583;SDS011;52234;43.568;6.996;2022-07-06T14:14:48;3.92;;;1.08;;
65583;SDS011;52234;43.568;6.996;2022-07-06T14:17:15;2.75;;;0.80;;
65583;SDS011;52234;43.568;6.996;2022-07-06T14:19:40;3.08;;;0.90;;
65583;SDS011;52234;43.568;6.996;2022-07-06T14:22:06;3.15;;;1.02;;
65583;SDS011;52234;43.568;6.996;2022-07-06T14:24:31;2.33;;;0.82;;
65583;SDS011;52234;43.568;6.996;2022-07-06T14:26:56;1.38;;;0.70;;
65583;SDS011;52234;43.568;6.996;2022-07-06T14:29:22;1.52;;;0.85;;
65583;SDS011;52234;43.568;6.996;2022-07-06T14:31:47;3.75;;;0.90;;
65583;SDS011;52234;43.568;6.996;2022-07-06T14:34:13;5.03;;;0.80;;
65583;SDS011;52234;43.568;6.996;2022-07-06T14:36:38;2.50;;;1.00;;
65583;SDS011;52234;43.568;6.996;2022-07-06T14:39:04;2.13;;;0.95;;
65583;SDS011;52234;43.568;6.996;2022-07-06T14:41:30;5.15;;;1.08;;
65583;SDS011;52234;43.568;6.996;2022-07-06T14:43:55;4.25;;;1.00;;
65583;SDS011;52234;43.568;6.996;2022-07-06T14:46:21;3.05;;;1.17;;
65583;SDS011;52234;43.568;6.996;2022-07-06T14:48:46;1.17;;;0.80;;
65583;SDS011;52234;43.568;6.996;2022-07-06T14:51:12;4.43;;;0.90;;
65583;SDS011;52234;43.568;6.996;2022-07-06T14:53:37;7.30;;;1.08;;
65583;SDS011;52234;43.568;6.996;2022-07-06T14:56:03;2.80;;;0.80;;
65583;SDS011;52234;43.568;6.996;2022-07-06T14:58:28;2.00;;;0.90;;